Time;durP1;ratioP1;P1;durP2;ratioP2;P2;SDS_P1;SDS_P2;PMS_P1;PMS_P2;Temp;Humidity;BMP_temperature;BMP_pressure;BME280_temperature;BME280_humidity;BME280_pressure;Samples;Min_cycle;Max_cycle;Signal;HPM_P1;HPM_P2
2019/11/15 00:00:42;;;;;;;32.05;21.2;;;;;;;0.02;82.65039;93426.5;;;;
2019/11/15 00:01:44;;;;;;;32.05;21.2;;;;;;;0.02;82.65039;93426.5;;;;
2019/11/15 00:02:45;;;;;;;32.05;21.2;;;;;;;0.02;82.65039;93426.5;;;;
2019/11/15 00:03:46;;;;;;;32.05;21.2;;;;;;;0.02;82.65039;93426.5;;;;
2019/11/15 00:04:47;;;;;;;31.3;20.8;;;;;;;-0.05;82.67969;93421.77;;;;
2019/11/15 00:05:48;;;;;;;31.3;20.8;;;;;;;-0.05;82.67969;93421.77;;;;
2019/11/15 00:06:49;;;;;;;31.3;20.8;;;;;;;-0.05;82.67969;93421.77;;;;
2019/11/15 00:07:50;;;;;;;31.3;20.8;;;;;;;-0.05;82.67969;93421.77;;;;
2019/11/15 00:08:51;;;;;;;31.3;20.8;;;;;;;-0.05;82.67969;93421.77;;;;
2019/11/15 00:09:52;;;;;;;31.3;20.8;;;;;;;-0.05;82.67969;93421.77;;;;
2019/11/15 00:10:53;;;;;;;31.3;20.8;;;;;;;-0.05;82.67969;93421.77;;;;
2019/11/15 00:11:55;;;;;;;31.3;20.8;;;;;;;-0.05;82.67969;93421.77;;;;
2019/11/15 00:12:56;;;;;;;31.3;20.8;;;;;;;-0.05;82.67969;93421.77;;;;
2019/11/15 00:13:57;;;;;;;31.3;20.8;;;;;;;-0.05;82.67969;93421.77;;;;
2019/11/15 00:14:58;;;;;;;30.3;20.45;;;;;;;-0.13;82.81055;93406.94;;;;
2019/11/15 00:15:59;;;;;;;30.3;20.45;;;;;;;-0.13;82.81055;93406.94;;;;
2019/11/15 00:17:00;;;;;;;30.3;20.45;;;;;;;-0.13;82.81055;93406.94;;;;
2019/11/15 00:18:01;;;;;;;30.3;20.45;;;;;;;-0.13;82.81055;93406.94;;;;
2019/11/15 00:19:03;;;;;;;30.3;20.45;;;;;;;-0.13;82.81055;93406.94;;;;
2019/11/15 00:20:04;;;;;;;30.3;20.45;;;;;;;-0.13;82.81055;93406.94;;;;
2019/11/15 00:21:05;;;;;;;30.3;20.45;;;;;;;-0.13;82.81055;93406.94;;;;
2019/11/15 00:22:06;;;;;;;30.3;20.45;;;;;;;-0.13;82.81055;93406.94;;;;
2019/11/15 00:23:07;;;;;;;30.3;20.45;;;;;;;-0.13;82.81055;93406.94;;;;
2019/11/15 00:24:09;;;;;;;30.3;20.45;;;;;;;-0.13;82.81055;93406.94;;;;
2019/11/15 00:25:10;;;;;;;30.3;20.45;;;;;;;-0.13;82.81055;93406.94;;;;
2019/11/15 00:26:11;;;;;;;28.9;20;;;;;;;-0.18;83.07031;93412.08;;;;
2019/11/15 00:27:12;;;;;;;28.9;20;;;;;;;-0.18;83.07031;93412.08;;;;
2019/11/15 00:28:13;;;;;;;28.9;20;;;;;;;-0.18;83.07031;93412.08;;;;
2019/11/15 00:29:14;;;;;;;28.9;20;;;;;;;-0.18;83.07031;93412.08;;;;
2019/11/15 00:30:15;;;;;;;28.9;20;;;;;;;-0.18;83.07031;93412.08;;;;
2019/11/15 00:36:28;;;;;;;30.45;19.4;;;;;;;-0.19;83.26563;93388.44;;;;
2019/11/15 00:37:38;;;;;;;30.45;19.4;;;;;;;-0.19;83.26563;93388.44;;;;
2019/11/15 00:38:58;;;;;;;30.45;19.4;;;;;;;-0.19;83.26563;93388.44;;;;
2019/11/15 00:40:00;;;;;;;30.45;19.4;;;;;;;-0.19;83.26563;93388.44;;;;
2019/11/15 00:41:04;;;;;;;30.45;19.4;;;;;;;-0.19;83.26563;93388.44;;;;
2019/11/15 00:42:06;;;;;;;30.45;19.4;;;;;;;-0.19;83.26563;93388.44;;;;
2019/11/15 00:43:10;;;;;;;30.45;19.4;;;;;;;-0.19;83.26563;93388.44;;;;
2019/11/15 00:44:11;;;;;;;30.45;19.4;;;;;;;-0.19;83.26563;93388.44;;;;
2019/11/15 00:45:12;;;;;;;30.45;19.4;;;;;;;-0.19;83.26563;93388.44;;;;
2019/11/15 00:46:13;;;;;;;30.45;19.4;;;;;;;-0.19;83.26563;93388.44;;;;
2019/11/15 00:50:58;;;;;;;29.75;19.05;;;;;;;-0.14;83.26465;93380.64;;;;
2019/11/15 00:51:59;;;;;;;29.75;19.05;;;;;;;-0.14;83.26465;93380.64;;;;
2019/11/15 00:53:00;;;;;;;29.75;19.05;;;;;;;-0.14;83.26465;93380.64;;;;
2019/11/15 00:54:01;;;;;;;29.75;19.05;;;;;;;-0.14;83.26465;93380.64;;;;
2019/11/15 00:55:02;;;;;;;29.75;19.05;;;;;;;-0.14;83.26465;93380.64;;;;
2019/11/15 00:56:06;;;;;;;29.75;19.05;;;;;;;-0.14;83.26465;93380.64;;;;
2019/11/15 00:57:07;;;;;;;29.75;19.05;;;;;;;-0.14;83.26465;93380.64;;;;
2019/11/15 00:58:08;;;;;;;31.65;20.2;;;;;;;-0.2;83.27246;93381.53;;;;
2019/11/15 00:59:09;;;;;;;31.65;20.2;;;;;;;-0.2;83.27246;93381.53;;;;
2019/11/15 01:00:10;;;;;;;31.65;20.2;;;;;;;-0.2;83.27246;93381.53;;;;
2019/11/15 01:02:17;;;;;;;31.65;20.2;;;;;;;-0.2;83.27246;93381.53;;;;
2019/11/15 01:03:18;;;;;;;31.65;20.2;;;;;;;-0.2;83.27246;93381.53;;;;
2019/11/15 01:04:19;;;;;;;31.65;20.2;;;;;;;-0.2;83.27246;93381.53;;;;
2019/11/15 01:05:20;;;;;;;31.65;20.2;;;;;;;-0.2;83.27246;93381.53;;;;
2019/11/15 01:06:21;;;;;;;31.65;20.2;;;;;;;-0.2;83.27246;93381.53;;;;
2019/11/15 01:07:23;;;;;;;31.65;20.2;;;;;;;-0.2;83.27246;93381.53;;;;
2019/11/15 01:08:24;;;;;;;31.85;20.3;;;;;;;-0.24;83.49609;93366.58;;;;
2019/11/15 01:09:25;;;;;;;31.85;20.3;;;;;;;-0.24;83.49609;93366.58;;;;
2019/11/15 01:10:27;;;;;;;31.85;20.3;;;;;;;-0.24;83.49609;93366.58;;;;
2019/11/15 01:11:28;;;;;;;31.85;20.3;;;;;;;-0.24;83.49609;93366.58;;;;
2019/11/15 01:12:29;;;;;;;31.85;20.3;;;;;;;-0.24;83.49609;93366.58;;;;
2019/11/15 01:13:30;;;;;;;31.85;20.3;;;;;;;-0.24;83.49609;93366.58;;;;
2019/11/15 01:14:31;;;;;;;31.85;20.3;;;;;;;-0.24;83.49609;93366.58;;;;
2019/11/15 01:15:32;;;;;;;31.85;20.3;;;;;;;-0.24;83.49609;93366.58;;;;
2019/11/15 01:16:33;;;;;;;31.85;20.3;;;;;;;-0.24;83.49609;93366.58;;;;
2019/11/15 01:17:34;;;;;;;31.85;20.3;;;;;;;-0.24;83.49609;93366.58;;;;
2019/11/15 01:18:35;;;;;;;32.15;20.55;;;;;;;-0.32;83.5;93344.42;;;;
2019/11/15 01:19:37;;;;;;;32.15;20.55;;;;;;;-0.32;83.5;93344.42;;;;
2019/11/15 01:20:38;;;;;;;32.15;20.55;;;;;;;-0.32;83.5;93344.42;;;;
2019/11/15 01:21:39;;;;;;;32.15;20.55;;;;;;;-0.32;83.5;93344.42;;;;
2019/11/15 01:22:40;;;;;;;32.15;20.55;;;;;;;-0.32;83.5;93344.42;;;;
2019/11/15 01:23:41;;;;;;;32.15;20.55;;;;;;;-0.32;83.5;93344.42;;;;
2019/11/15 01:24:42;;;;;;;32.15;20.55;;;;;;;-0.32;83.5;93344.42;;;;
2019/11/15 01:25:43;;;;;;;32.15;20.55;;;;;;;-0.32;83.5;93344.42;;;;
2019/11/15 01:26:45;;;;;;;32.15;20.55;;;;;;;-0.32;83.5;93344.42;;;;
2019/11/15 01:27:46;;;;;;;32.15;20.55;;;;;;;-0.32;83.5;93344.42;;;;
2019/11/15 01:28:47;;;;;;;32.15;20.55;;;;;;;-0.32;83.5;93344.42;;;;
2019/11/15 01:29:48;;;;;;;34.35;20.65;;;;;;;-0.32;83.97852;93332.37;;;;
2019/11/15 01:30:49;;;;;;;34.35;20.65;;;;;;;-0.32;83.97852;93332.37;;;;
2019/11/15 01:31:50;;;;;;;34.35;20.65;;;;;;;-0.32;83.97852;93332.37;;;;
2019/11/15 01:32:51;;;;;;;34.35;20.65;;;;;;;-0.32;83.97852;93332.37;;;;
2019/11/15 01:33:52;;;;;;;34.35;20.65;;;;;;;-0.32;83.97852;93332.37;;;;
2019/11/15 01:34:53;;;;;;;34.35;20.65;;;;;;;-0.32;83.97852;93332.37;;;;
2019/11/15 01:35:55;;;;;;;34.35;20.65;;;;;;;-0.32;83.97852;93332.37;;;;
2019/11/15 01:36:56;;;;;;;34.35;20.65;;;;;;;-0.32;83.97852;93332.37;;;;
2019/11/15 01:37:57;;;;;;;34.35;20.65;;;;;;;-0.32;83.97852;93332.37;;;;
2019/11/15 01:38:58;;;;;;;34.35;20.65;;;;;;;-0.32;83.97852;93332.37;;;;
2019/11/15 01:40:00;;;;;;;31.5;20.85;;;;;;;-0.35;84.02344;93314.35;;;;
2019/11/15 01:41:01;;;;;;;31.5;20.85;;;;;;;-0.35;84.02344;93314.35;;;;
2019/11/15 01:42:02;;;;;;;31.5;20.85;;;;;;;-0.35;84.02344;93314.35;;;;
2019/11/15 01:43:03;;;;;;;31.5;20.85;;;;;;;-0.35;84.02344;93314.35;;;;
2019/11/15 01:44:04;;;;;;;31.5;20.85;;;;;;;-0.35;84.02344;93314.35;;;;
2019/11/15 01:45:05;;;;;;;31.5;20.85;;;;;;;-0.35;84.02344;93314.35;;;;
2019/11/15 01:46:07;;;;;;;31.5;20.85;;;;;;;-0.35;84.02344;93314.35;;;;
2019/11/15 01:47:08;;;;;;;31.5;20.85;;;;;;;-0.35;84.02344;93314.35;;;;
2019/11/15 01:48:09;;;;;;;31.5;20.85;;;;;;;-0.35;84.02344;93314.35;;;;
2019/11/15 01:49:10;;;;;;;31.5;20.85;;;;;;;-0.35;84.02344;93314.35;;;;
2019/11/15 01:50:11;;;;;;;31.5;20.85;;;;;;;-0.35;84.02344;93314.35;;;;
2019/11/15 01:51:12;;;;;;;33.75;20.9;;;;;;;-0.28;84.15234;93289.81;;;;
2019/11/15 01:52:13;;;;;;;33.75;20.9;;;;;;;-0.28;84.15234;93289.81;;;;
2019/11/15 01:53:14;;;;;;;33.75;20.9;;;;;;;-0.28;84.15234;93289.81;;;;
2019/11/15 01:54:16;;;;;;;33.75;20.9;;;;;;;-0.28;84.15234;93289.81;;;;
2019/11/15 01:55:17;;;;;;;33.75;20.9;;;;;;;-0.28;84.15234;93289.81;;;;
2019/11/15 01:56:18;;;;;;;33.75;20.9;;;;;;;-0.28;84.15234;93289.81;;;;
2019/11/15 01:57:19;;;;;;;33.75;20.9;;;;;;;-0.28;84.15234;93289.81;;;;
2019/11/15 01:58:20;;;;;;;33.75;20.9;;;;;;;-0.28;84.15234;93289.81;;;;
2019/11/15 01:59:21;;;;;;;33.75;20.9;;;;;;;-0.28;84.15234;93289.81;;;;
2019/11/15 02:00:22;;;;;;;33.75;20.9;;;;;;;-0.28;84.15234;93289.81;;;;
2019/11/15 02:01:23;;;;;;;31.05;20;;;;;;;-0.29;84.30664;93288.72;;;;
2019/11/15 02:02:24;;;;;;;31.05;20;;;;;;;-0.29;84.30664;93288.72;;;;
2019/11/15 02:07:38;;;;;;;31.05;20;;;;;;;-0.29;84.30664;93288.72;;;;
2019/11/15 02:13:49;;;;;;;28.25;18.8;;;;;;;-0.23;84.45313;93268.34;;;;
2019/11/15 02:14:50;;;;;;;28.25;18.8;;;;;;;-0.23;84.45313;93268.34;;;;
2019/11/15 02:15:52;;;;;;;28.25;18.8;;;;;;;-0.23;84.45313;93268.34;;;;
2019/11/15 02:16:53;;;;;;;28.25;18.8;;;;;;;-0.23;84.45313;93268.34;;;;
2019/11/15 02:17:54;;;;;;;28.25;18.8;;;;;;;-0.23;84.45313;93268.34;;;;
2019/11/15 02:18:56;;;;;;;28.25;18.8;;;;;;;-0.23;84.45313;93268.34;;;;
2019/11/15 02:19:57;;;;;;;28.25;18.8;;;;;;;-0.23;84.45313;93268.34;;;;
2019/11/15 02:20:58;;;;;;;28.25;18.8;;;;;;;-0.23;84.45313;93268.34;;;;
2019/11/15 02:21:59;;;;;;;28.25;18.8;;;;;;;-0.23;84.45313;93268.34;;;;
2019/11/15 02:23:00;;;;;;;31.6;20;;;;;;;-0.18;84.40039;93261.07;;;;
2019/11/15 02:24:02;;;;;;;31.6;20;;;;;;;-0.18;84.40039;93261.07;;;;
2019/11/15 02:25:03;;;;;;;31.6;20;;;;;;;-0.18;84.40039;93261.07;;;;
2019/11/15 02:26:04;;;;;;;31.6;20;;;;;;;-0.18;84.40039;93261.07;;;;
2019/11/15 02:27:06;;;;;;;31.6;20;;;;;;;-0.18;84.40039;93261.07;;;;
2019/11/15 02:28:07;;;;;;;31.6;20;;;;;;;-0.18;84.40039;93261.07;;;;
2019/11/15 02:29:08;;;;;;;31.6;20;;;;;;;-0.18;84.40039;93261.07;;;;
2019/11/15 02:30:09;;;;;;;31.6;20;;;;;;;-0.18;84.40039;93261.07;;;;
2019/11/15 02:31:10;;;;;;;31.6;20;;;;;;;-0.18;84.40039;93261.07;;;;
2019/11/15 02:32:12;;;;;;;31.6;20;;;;;;;-0.18;84.40039;93261.07;;;;
2019/11/15 02:33:13;;;;;;;30.5;20.2;;;;;;;-0.16;84.44727;93248.41;;;;
2019/11/15 02:34:14;;;;;;;30.5;20.2;;;;;;;-0.16;84.44727;93248.41;;;;
2019/11/15 02:35:15;;;;;;;30.5;20.2;;;;;;;-0.16;84.44727;93248.41;;;;
2019/11/15 02:36:16;;;;;;;30.5;20.2;;;;;;;-0.16;84.44727;93248.41;;;;
2019/11/15 02:37:17;;;;;;;30.5;20.2;;;;;;;-0.16;84.44727;93248.41;;;;
2019/11/15 02:38:19;;;;;;;30.5;20.2;;;;;;;-0.16;84.44727;93248.41;;;;
2019/11/15 02:39:20;;;;;;;30.5;20.2;;;;;;;-0.16;84.44727;93248.41;;;;
2019/11/15 02:40:21;;;;;;;30.5;20.2;;;;;;;-0.16;84.44727;93248.41;;;;
2019/11/15 02:41:22;;;;;;;30.5;20.2;;;;;;;-0.16;84.44727;93248.41;;;;
2019/11/15 02:42:23;;;;;;;30.5;20.2;;;;;;;-0.16;84.44727;93248.41;;;;
2019/11/15 02:43:25;;;;;;;28.95;18.85;;;;;;;-0.24;84.69238;93226.97;;;;
2019/11/15 02:44:26;;;;;;;28.95;18.85;;;;;;;-0.24;84.69238;93226.97;;;;
2019/11/15 02:45:27;;;;;;;28.95;18.85;;;;;;;-0.24;84.69238;93226.97;;;;
2019/11/15 02:46:28;;;;;;;28.95;18.85;;;;;;;-0.24;84.69238;93226.97;;;;
2019/11/15 02:47:29;;;;;;;28.95;18.85;;;;;;;-0.24;84.69238;93226.97;;;;
2019/11/15 02:48:30;;;;;;;28.95;18.85;;;;;;;-0.24;84.69238;93226.97;;;;
2019/11/15 02:49:32;;;;;;;28.95;18.85;;;;;;;-0.24;84.69238;93226.97;;;;
2019/11/15 02:50:33;;;;;;;28.95;18.85;;;;;;;-0.24;84.69238;93226.97;;;;
2019/11/15 02:51:34;;;;;;;28.95;18.85;;;;;;;-0.24;84.69238;93226.97;;;;
2019/11/15 02:52:35;;;;;;;28.95;18.85;;;;;;;-0.24;84.69238;93226.97;;;;
2019/11/15 02:53:36;;;;;;;28.95;18.85;;;;;;;-0.24;84.69238;93226.97;;;;
2019/11/15 02:54:37;;;;;;;28.35;18.5;;;;;;;-0.28;85.08887;93237.3;;;;
2019/11/15 02:55:39;;;;;;;28.35;18.5;;;;;;;-0.28;85.08887;93237.3;;;;
2019/11/15 02:56:40;;;;;;;28.35;18.5;;;;;;;-0.28;85.08887;93237.3;;;;
2019/11/15 02:57:41;;;;;;;28.35;18.5;;;;;;;-0.28;85.08887;93237.3;;;;
2019/11/15 02:58:42;;;;;;;28.35;18.5;;;;;;;-0.28;85.08887;93237.3;;;;
2019/11/15 02:59:43;;;;;;;28.35;18.5;;;;;;;-0.28;85.08887;93237.3;;;;
2019/11/15 03:00:44;;;;;;;28.35;18.5;;;;;;;-0.28;85.08887;93237.3;;;;
2019/11/15 03:01:46;;;;;;;28.35;18.5;;;;;;;-0.28;85.08887;93237.3;;;;
2019/11/15 03:02:47;;;;;;;28.35;18.5;;;;;;;-0.28;85.08887;93237.3;;;;
2019/11/15 03:03:49;;;;;;;28.35;18.5;;;;;;;-0.28;85.08887;93237.3;;;;
2019/11/15 03:04:50;;;;;;;23.45;15.45;;;;;;;-0.27;85.41309;93236.66;;;;
2019/11/15 03:05:51;;;;;;;23.45;15.45;;;;;;;-0.27;85.41309;93236.66;;;;
2019/11/15 03:06:52;;;;;;;23.45;15.45;;;;;;;-0.27;85.41309;93236.66;;;;
2019/11/15 03:07:54;;;;;;;23.45;15.45;;;;;;;-0.27;85.41309;93236.66;;;;
2019/11/15 03:08:55;;;;;;;23.45;15.45;;;;;;;-0.27;85.41309;93236.66;;;;
2019/11/15 03:09:56;;;;;;;23.45;15.45;;;;;;;-0.27;85.41309;93236.66;;;;
2019/11/15 03:10:57;;;;;;;23.45;15.45;;;;;;;-0.27;85.41309;93236.66;;;;
2019/11/15 03:11:58;;;;;;;23.45;15.45;;;;;;;-0.27;85.41309;93236.66;;;;
2019/11/15 03:12:59;;;;;;;23.45;15.45;;;;;;;-0.27;85.41309;93236.66;;;;
2019/11/15 03:14:01;;;;;;;23.45;15.45;;;;;;;-0.27;85.41309;93236.66;;;;
2019/11/15 03:15:02;;;;;;;23.45;15.45;;;;;;;-0.27;85.41309;93236.66;;;;
2019/11/15 03:16:03;;;;;;;20.05;13.8;;;;;;;-0.11;85.69434;93239.67;;;;
2019/11/15 03:17:04;;;;;;;20.05;13.8;;;;;;;-0.11;85.69434;93239.67;;;;
2019/11/15 03:18:06;;;;;;;20.05;13.8;;;;;;;-0.11;85.69434;93239.67;;;;
2019/11/15 03:19:07;;;;;;;20.05;13.8;;;;;;;-0.11;85.69434;93239.67;;;;
2019/11/15 03:20:08;;;;;;;20.05;13.8;;;;;;;-0.11;85.69434;93239.67;;;;
2019/11/15 03:21:09;;;;;;;20.05;13.8;;;;;;;-0.11;85.69434;93239.67;;;;
2019/11/15 03:22:10;;;;;;;20.05;13.8;;;;;;;-0.11;85.69434;93239.67;;;;
2019/11/15 03:23:11;;;;;;;20.05;13.8;;;;;;;-0.11;85.69434;93239.67;;;;
2019/11/15 03:24:13;;;;;;;20.05;13.8;;;;;;;-0.11;85.69434;93239.67;;;;
2019/11/15 03:25:14;;;;;;;20.05;13.8;;;;;;;-0.11;85.69434;93239.67;;;;
2019/11/15 03:26:15;;;;;;;18.85;12.35;;;;;;;-0.02;85.70117;93226.4;;;;
2019/11/15 03:27:16;;;;;;;18.85;12.35;;;;;;;-0.02;85.70117;93226.4;;;;
2019/11/15 03:28:20;;;;;;;18.85;12.35;;;;;;;-0.02;85.70117;93226.4;;;;
2019/11/15 03:29:26;;;;;;;18.85;12.35;;;;;;;-0.02;85.70117;93226.4;;;;
2019/11/15 03:35:36;;;;;;;18.85;12.35;;;;;;;-0.02;85.70117;93226.4;;;;
2019/11/15 03:36:38;;;;;;;18.85;12.35;;;;;;;-0.02;85.70117;93226.4;;;;
2019/11/15 03:37:39;;;;;;;18.85;12.35;;;;;;;-0.02;85.70117;93226.4;;;;
2019/11/15 03:38:40;;;;;;;18.85;12.35;;;;;;;-0.02;85.70117;93226.4;;;;
2019/11/15 03:39:41;;;;;;;18.85;12.35;;;;;;;-0.02;85.70117;93226.4;;;;
2019/11/15 03:40:42;;;;;;;18.85;12.35;;;;;;;-0.02;85.70117;93226.4;;;;
2019/11/15 03:41:43;;;;;;;18.85;12.35;;;;;;;-0.02;85.70117;93226.4;;;;
2019/11/15 03:42:44;;;;;;;18.85;12.35;;;;;;;-0.02;85.70117;93226.4;;;;
2019/11/15 03:43:46;;;;;;;18.85;12.35;;;;;;;-0.02;85.70117;93226.4;;;;
2019/11/15 03:44:47;;;;;;;18.85;12.35;;;;;;;-0.02;85.70117;93226.4;;;;
2019/11/15 03:45:49;;;;;;;18.85;12.35;;;;;;;-0.02;85.70117;93226.4;;;;
2019/11/15 03:46:56;;;;;;;18.85;12.35;;;;;;;-0.02;85.70117;93226.4;;;;
2019/11/15 03:48:02;;;;;;;11.4;8.7;;;;;;;0.19;85.58691;93214.5;;;;
2019/11/15 03:49:11;;;;;;;11.4;8.7;;;;;;;0.19;85.58691;93214.5;;;;
2019/11/15 03:50:13;;;;;;;11.4;8.7;;;;;;;0.19;85.58691;93214.5;;;;
2019/11/15 03:51:15;;;;;;;11.4;8.7;;;;;;;0.19;85.58691;93214.5;;;;
2019/11/15 03:52:18;;;;;;;11.4;8.7;;;;;;;0.19;85.58691;93214.5;;;;
2019/11/15 03:53:40;;;;;;;11.4;8.7;;;;;;;0.19;85.58691;93214.5;;;;
2019/11/15 03:54:42;;;;;;;11.4;8.7;;;;;;;0.19;85.58691;93214.5;;;;
2019/11/15 03:56:03;;;;;;;11.4;8.7;;;;;;;0.19;85.58691;93214.5;;;;
2019/11/15 04:01:11;;;;;;;11.95;8.35;;;;;;;0.22;86.125;93193.23;;;;
2019/11/15 04:02:27;;;;;;;11.95;8.35;;;;;;;0.22;86.125;93193.23;;;;
2019/11/15 04:03:32;;;;;;;11.95;8.35;;;;;;;0.22;86.125;93193.23;;;;
2019/11/15 04:04:49;;;;;;;11.95;8.35;;;;;;;0.22;86.125;93193.23;;;;
2019/11/15 04:05:52;;;;;;;11.95;8.35;;;;;;;0.22;86.125;93193.23;;;;
2019/11/15 04:06:53;;;;;;;11.95;8.35;;;;;;;0.22;86.125;93193.23;;;;
2019/11/15 04:07:55;;;;;;;11.95;8.35;;;;;;;0.22;86.125;93193.23;;;;
2019/11/15 04:08:56;;;;;;;11.8;7.949999;;;;;;;0.19;86.30859;93201.14;;;;
2019/11/15 04:09:57;;;;;;;11.8;7.949999;;;;;;;0.19;86.30859;93201.14;;;;
2019/11/15 04:10:58;;;;;;;11.8;7.949999;;;;;;;0.19;86.30859;93201.14;;;;
2019/11/15 04:11:59;;;;;;;11.8;7.949999;;;;;;;0.19;86.30859;93201.14;;;;
2019/11/15 04:13:01;;;;;;;11.8;7.949999;;;;;;;0.19;86.30859;93201.14;;;;
2019/11/15 04:14:02;;;;;;;11.8;7.949999;;;;;;;0.19;86.30859;93201.14;;;;
2019/11/15 04:15:03;;;;;;;11.8;7.949999;;;;;;;0.19;86.30859;93201.14;;;;
2019/11/15 04:16:04;;;;;;;11.8;7.949999;;;;;;;0.19;86.30859;93201.14;;;;
2019/11/15 04:17:06;;;;;;;11.8;7.949999;;;;;;;0.19;86.30859;93201.14;;;;
2019/11/15 04:18:07;;;;;;;11.8;7.949999;;;;;;;0.19;86.30859;93201.14;;;;
2019/11/15 04:19:08;;;;;;;11.65;7.550001;;;;;;;0.23;86.65723;93201.09;;;;
2019/11/15 04:20:09;;;;;;;11.65;7.550001;;;;;;;0.23;86.65723;93201.09;;;;
2019/11/15 04:21:10;;;;;;;11.65;7.550001;;;;;;;0.23;86.65723;93201.09;;;;
2019/11/15 04:22:11;;;;;;;11.65;7.550001;;;;;;;0.23;86.65723;93201.09;;;;
2019/11/15 04:23:13;;;;;;;11.65;7.550001;;;;;;;0.23;86.65723;93201.09;;;;
2019/11/15 04:24:14;;;;;;;11.65;7.550001;;;;;;;0.23;86.65723;93201.09;;;;
2019/11/15 04:25:15;;;;;;;11.65;7.550001;;;;;;;0.23;86.65723;93201.09;;;;
2019/11/15 04:26:16;;;;;;;11.65;7.550001;;;;;;;0.23;86.65723;93201.09;;;;
2019/11/15 04:27:17;;;;;;;11.65;7.550001;;;;;;;0.23;86.65723;93201.09;;;;
2019/11/15 04:28:18;;;;;;;11.65;7.550001;;;;;;;0.23;86.65723;93201.09;;;;
2019/11/15 04:29:20;;;;;;;11.65;7.550001;;;;;;;0.23;86.65723;93201.09;;;;
2019/11/15 04:30:21;;;;;;;9.049999;6.95;;;;;;;0.18;86.79395;93189.01;;;;
2019/11/15 04:31:39;;;;;;;9.049999;6.95;;;;;;;0.18;86.79395;93189.01;;;;
2019/11/15 04:32:40;;;;;;;9.049999;6.95;;;;;;;0.18;86.79395;93189.01;;;;
2019/11/15 04:33:52;;;;;;;9.049999;6.95;;;;;;;0.18;86.79395;93189.01;;;;
2019/11/15 04:34:57;;;;;;;9.049999;6.95;;;;;;;0.18;86.79395;93189.01;;;;
2019/11/15 04:35:58;;;;;;;9.049999;6.95;;;;;;;0.18;86.79395;93189.01;;;;
2019/11/15 04:36:59;;;;;;;9.049999;6.95;;;;;;;0.18;86.79395;93189.01;;;;
2019/11/15 04:38:02;;;;;;;9.049999;6.95;;;;;;;0.18;86.79395;93189.01;;;;
2019/11/15 04:39:03;;;;;;;9.049999;6.95;;;;;;;0.18;86.79395;93189.01;;;;
2019/11/15 04:40:04;;;;;;;9.049999;6.95;;;;;;;0.18;86.79395;93189.01;;;;
2019/11/15 04:41:06;;;;;;;8.9;6.1;;;;;;;0.18;86.98047;93167.25;;;;
2019/11/15 04:42:09;;;;;;;8.9;6.1;;;;;;;0.18;86.98047;93167.25;;;;
2019/11/15 04:43:15;;;;;;;8.9;6.1;;;;;;;0.18;86.98047;93167.25;;;;
2019/11/15 04:44:16;;;;;;;8.9;6.1;;;;;;;0.18;86.98047;93167.25;;;;
2019/11/15 04:45:20;;;;;;;8.9;6.1;;;;;;;0.18;86.98047;93167.25;;;;
2019/11/15 04:46:22;;;;;;;8.9;6.1;;;;;;;0.18;86.98047;93167.25;;;;
2019/11/15 04:47:23;;;;;;;8.9;6.1;;;;;;;0.18;86.98047;93167.25;;;;
2019/11/15 04:48:26;;;;;;;8.9;6.1;;;;;;;0.18;86.98047;93167.25;;;;
2019/11/15 04:49:30;;;;;;;8.9;6.1;;;;;;;0.18;86.98047;93167.25;;;;
2019/11/15 04:50:33;;;;;;;8.9;6.1;;;;;;;0.18;86.98047;93167.25;;;;
2019/11/15 04:51:36;;;;;;;6.3;4.900001;;;;;;;0.14;87.07715;93143.56;;;;
2019/11/15 04:52:37;;;;;;;6.3;4.900001;;;;;;;0.14;87.07715;93143.56;;;;
2019/11/15 04:53:38;;;;;;;6.3;4.900001;;;;;;;0.14;87.07715;93143.56;;;;
2019/11/15 04:54:40;;;;;;;6.3;4.900001;;;;;;;0.14;87.07715;93143.56;;;;
2019/11/15 04:55:41;;;;;;;6.3;4.900001;;;;;;;0.14;87.07715;93143.56;;;;
2019/11/15 04:56:42;;;;;;;6.3;4.900001;;;;;;;0.14;87.07715;93143.56;;;;
2019/11/15 04:57:46;;;;;;;6.3;4.900001;;;;;;;0.14;87.07715;93143.56;;;;
2019/11/15 04:58:47;;;;;;;6.3;4.900001;;;;;;;0.14;87.07715;93143.56;;;;
2019/11/15 04:59:48;;;;;;;6.3;4.900001;;;;;;;0.14;87.07715;93143.56;;;;
2019/11/15 05:00:49;;;;;;;6.3;4.900001;;;;;;;0.14;87.07715;93143.56;;;;
2019/11/15 05:01:51;;;;;;;4.55;3.35;;;;;;;0.31;87.58008;93135.24;;;;
2019/11/15 05:02:52;;;;;;;4.55;3.35;;;;;;;0.31;87.58008;93135.24;;;;
2019/11/15 05:03:53;;;;;;;4.55;3.35;;;;;;;0.31;87.58008;93135.24;;;;
2019/11/15 05:04:54;;;;;;;4.55;3.35;;;;;;;0.31;87.58008;93135.24;;;;
2019/11/15 05:05:55;;;;;;;4.55;3.35;;;;;;;0.31;87.58008;93135.24;;;;
2019/11/15 05:06:56;;;;;;;4.55;3.35;;;;;;;0.31;87.58008;93135.24;;;;
2019/11/15 05:07:57;;;;;;;4.55;3.35;;;;;;;0.31;87.58008;93135.24;;;;
2019/11/15 05:08:58;;;;;;;4.55;3.35;;;;;;;0.31;87.58008;93135.24;;;;
2019/11/15 05:10:00;;;;;;;4.55;3.35;;;;;;;0.31;87.58008;93135.24;;;;
2019/11/15 05:11:01;;;;;;;4.55;3.35;;;;;;;0.31;87.58008;93135.24;;;;
2019/11/15 05:12:02;;;;;;;4.55;3.35;;;;;;;0.31;87.58008;93135.24;;;;
2019/11/15 05:13:03;;;;;;;4;3;;;;;;;0.56;87.99512;93122.19;;;;
2019/11/15 05:14:04;;;;;;;4;3;;;;;;;0.56;87.99512;93122.19;;;;
2019/11/15 05:15:05;;;;;;;4;3;;;;;;;0.56;87.99512;93122.19;;;;
2019/11/15 05:16:07;;;;;;;4;3;;;;;;;0.56;87.99512;93122.19;;;;
2019/11/15 05:17:09;;;;;;;4;3;;;;;;;0.56;87.99512;93122.19;;;;
2019/11/15 05:18:10;;;;;;;4;3;;;;;;;0.56;87.99512;93122.19;;;;
2019/11/15 05:19:11;;;;;;;4;3;;;;;;;0.56;87.99512;93122.19;;;;
2019/11/15 05:20:13;;;;;;;4;3;;;;;;;0.56;87.99512;93122.19;;;;
2019/11/15 05:21:14;;;;;;;4;3;;;;;;;0.56;87.99512;93122.19;;;;
2019/11/15 05:22:16;;;;;;;4;3;;;;;;;0.56;87.99512;93122.19;;;;
2019/11/15 05:23:18;;;;;;;4.15;3.35;;;;;;;0.94;88.04297;93131.89;;;;
2019/11/15 05:24:20;;;;;;;4.15;3.35;;;;;;;0.94;88.04297;93131.89;;;;
2019/11/15 05:25:21;;;;;;;4.15;3.35;;;;;;;0.94;88.04297;93131.89;;;;
2019/11/15 05:26:23;;;;;;;4.15;3.35;;;;;;;0.94;88.04297;93131.89;;;;
2019/11/15 05:27:24;;;;;;;4.15;3.35;;;;;;;0.94;88.04297;93131.89;;;;
2019/11/15 05:28:25;;;;;;;4.15;3.35;;;;;;;0.94;88.04297;93131.89;;;;
2019/11/15 05:29:26;;;;;;;4.15;3.35;;;;;;;0.94;88.04297;93131.89;;;;
2019/11/15 05:30:28;;;;;;;4.15;3.35;;;;;;;0.94;88.04297;93131.89;;;;
2019/11/15 05:31:29;;;;;;;4.15;3.35;;;;;;;0.94;88.04297;93131.89;;;;
2019/11/15 05:32:30;;;;;;;4.15;3.35;;;;;;;0.94;88.04297;93131.89;;;;
2019/11/15 05:33:31;;;;;;;6.45;4.05;;;;;;;1.1;88.03223;93107.42;;;;
2019/11/15 05:34:32;;;;;;;6.45;4.05;;;;;;;1.1;88.03223;93107.42;;;;
2019/11/15 05:35:33;;;;;;;6.45;4.05;;;;;;;1.1;88.03223;93107.42;;;;
2019/11/15 05:36:34;;;;;;;6.45;4.05;;;;;;;1.1;88.03223;93107.42;;;;
2019/11/15 05:37:35;;;;;;;6.45;4.05;;;;;;;1.1;88.03223;93107.42;;;;
2019/11/15 05:38:36;;;;;;;6.45;4.05;;;;;;;1.1;88.03223;93107.42;;;;
2019/11/15 05:39:38;;;;;;;6.45;4.05;;;;;;;1.1;88.03223;93107.42;;;;
2019/11/15 05:40:39;;;;;;;6.45;4.05;;;;;;;1.1;88.03223;93107.42;;;;
2019/11/15 05:41:40;;;;;;;6.45;4.05;;;;;;;1.1;88.03223;93107.42;;;;
2019/11/15 05:42:41;;;;;;;6.45;4.05;;;;;;;1.1;88.03223;93107.42;;;;
2019/11/15 05:43:42;;;;;;;6.45;4.05;;;;;;;1.1;88.03223;93107.42;;;;
2019/11/15 05:44:43;;;;;;;5.250001;3.45;;;;;;;1.34;88.24902;93083.64;;;;
2019/11/15 05:45:44;;;;;;;5.250001;3.45;;;;;;;1.34;88.24902;93083.64;;;;
2019/11/15 05:46:45;;;;;;;5.250001;3.45;;;;;;;1.34;88.24902;93083.64;;;;
2019/11/15 05:47:46;;;;;;;5.250001;3.45;;;;;;;1.34;88.24902;93083.64;;;;
2019/11/15 05:48:47;;;;;;;5.250001;3.45;;;;;;;1.34;88.24902;93083.64;;;;
2019/11/15 05:49:48;;;;;;;5.250001;3.45;;;;;;;1.34;88.24902;93083.64;;;;
2019/11/15 05:50:50;;;;;;;5.250001;3.45;;;;;;;1.34;88.24902;93083.64;;;;
2019/11/15 05:51:51;;;;;;;5.250001;3.45;;;;;;;1.34;88.24902;93083.64;;;;
2019/11/15 05:52:52;;;;;;;5.250001;3.45;;;;;;;1.34;88.24902;93083.64;;;;
2019/11/15 05:53:53;;;;;;;5.250001;3.45;;;;;;;1.34;88.24902;93083.64;;;;
2019/11/15 05:54:54;;;;;;;4.55;3.45;;;;;;;1.54;88.37402;93053.59;;;;
2019/11/15 05:55:55;;;;;;;4.55;3.45;;;;;;;1.54;88.37402;93053.59;;;;
2019/11/15 05:56:56;;;;;;;4.55;3.45;;;;;;;1.54;88.37402;93053.59;;;;
2019/11/15 05:57:57;;;;;;;4.55;3.45;;;;;;;1.54;88.37402;93053.59;;;;
2019/11/15 05:58:59;;;;;;;4.55;3.45;;;;;;;1.54;88.37402;93053.59;;;;
2019/11/15 06:00:00;;;;;;;4.55;3.45;;;;;;;1.54;88.37402;93053.59;;;;
2019/11/15 06:01:01;;;;;;;4.55;3.45;;;;;;;1.54;88.37402;93053.59;;;;
2019/11/15 06:02:02;;;;;;;4.55;3.45;;;;;;;1.54;88.37402;93053.59;;;;
2019/11/15 06:03:03;;;;;;;4.55;3.45;;;;;;;1.54;88.37402;93053.59;;;;
2019/11/15 06:04:04;;;;;;;4.55;3.45;;;;;;;1.54;88.37402;93053.59;;;;
2019/11/15 06:05:05;;;;;;;4.55;3.45;;;;;;;1.54;88.37402;93053.59;;;;
2019/11/15 06:06:07;;;;;;;4.400001;3.3;;;;;;;1.85;88.78418;93060.58;;;;
2019/11/15 06:07:08;;;;;;;4.400001;3.3;;;;;;;1.85;88.78418;93060.58;;;;
2019/11/15 06:08:09;;;;;;;4.400001;3.3;;;;;;;1.85;88.78418;93060.58;;;;
2019/11/15 06:09:10;;;;;;;4.400001;3.3;;;;;;;1.85;88.78418;93060.58;;;;
2019/11/15 06:10:11;;;;;;;4.400001;3.3;;;;;;;1.85;88.78418;93060.58;;;;
2019/11/15 06:11:12;;;;;;;4.400001;3.3;;;;;;;1.85;88.78418;93060.58;;;;
2019/11/15 06:12:14;;;;;;;4.400001;3.3;;;;;;;1.85;88.78418;93060.58;;;;
2019/11/15 06:13:15;;;;;;;4.400001;3.3;;;;;;;1.85;88.78418;93060.58;;;;
2019/11/15 06:14:16;;;;;;;4.400001;3.3;;;;;;;1.85;88.78418;93060.58;;;;
2019/11/15 06:15:17;;;;;;;4.400001;3.3;;;;;;;1.85;88.78418;93060.58;;;;
2019/11/15 06:16:18;;;;;;;4.7;3.45;;;;;;;2.1;88.56152;93037.64;;;;